Time;durP1;ratioP1;P1;durP2;ratioP2;P2;SDS_P1;SDS_P2;PMS_P1;PMS_P2;Temp;Humidity;BMP_temperature;BMP_pressure;BME280_temperature;BME280_humidity;BME280_pressure;Samples;Min_cycle;Max_cycle;Signal;HPM_P1;HPM_P2
2023/05/18 00:00:24;;;;;;;4.27;2.20;;;10.00;57.60;;;;;;937592;152;27414;-76
2023/05/18 00:02:51;;;;;;;5.27;1.90;;;10.00;57.70;;;;;;937391;149;27433;-76
2023/05/18 00:05:18;;;;;;;4.43;2.30;;;10.00;57.70;;;;;;937417;149;27353;-76
2023/05/18 00:07:45;;;;;;;6.97;2.23;;;9.90;57.80;;;;;;936800;150;27577;-76
2023/05/18 00:10:11;;;;;;;6.60;2.07;;;9.90;58.00;;;;;;937557;149;27380;-76
2023/05/18 00:12:37;;;;;;;6.53;2.27;;;9.90;57.90;;;;;;937004;151;27423;-75
2023/05/18 00:15:04;;;;;;;5.23;2.33;;;9.90;58.00;;;;;;937660;152;27338;-75
2023/05/18 00:17:30;;;;;;;4.73;2.10;;;9.90;58.10;;;;;;936797;152;27487;-75
2023/05/18 00:19:57;;;;;;;3.20;2.03;;;9.80;58.10;;;;;;937148;152;27337;-75
2023/05/18 00:22:25;;;;;;;3.70;2.10;;;9.80;58.10;;;;;;937194;149;27363;-75
2023/05/18 00:24:50;;;;;;;3.47;2.27;;;9.80;58.20;;;;;;937095;152;27306;-75
2023/05/18 00:27:17;;;;;;;4.93;2.10;;;9.80;58.00;;;;;;937624;152;27368;-75
2023/05/18 00:29:43;;;;;;;5.03;2.03;;;9.70;58.10;;;;;;937471;152;27360;-75
2023/05/18 00:32:10;;;;;;;3.07;2.07;;;9.70;58.20;;;;;;937327;150;27301;-75
2023/05/18 00:34:37;;;;;;;4.30;1.80;;;9.70;58.30;;;;;;937449;150;27417;-75
2023/05/18 00:37:03;;;;;;;4.87;2.40;;;9.70;58.40;;;;;;937286;149;27340;-75
2023/05/18 00:39:30;;;;;;;4.73;2.00;;;9.70;58.50;;;;;;937938;149;27457;-75
2023/05/18 00:41:56;;;;;;;4.10;2.10;;;9.70;58.40;;;;;;937458;152;27345;-75
2023/05/18 00:44:23;;;;;;;5.87;2.37;;;9.60;58.50;;;;;;937538;151;27387;-75
2023/05/18 00:46:49;;;;;;;3.33;1.93;;;9.60;59.30;;;;;;937217;151;27304;-75
2023/05/18 00:49:16;;;;;;;4.47;2.10;;;9.60;58.70;;;;;;937645;151;27471;-76
2023/05/18 00:51:43;;;;;;;5.40;2.20;;;9.60;58.70;;;;;;911724;152;27456;-75
2023/05/18 00:54:09;;;;;;;4.40;2.40;;;9.60;59.00;;;;;;933969;149;27355;-76
2023/05/18 00:56:40;;;;;;;7.47;2.07;;;9.50;59.00;;;;;;918173;152;28011;-76
2023/05/18 00:59:03;;;;;;;4.83;1.97;;;9.50;59.00;;;;;;911377;153;27460;-75
2023/05/18 01:01:29;;;;;;;3.67;2.00;;;9.50;59.10;;;;;;928275;150;27479;-76
2023/05/18 01:04:01;;;;;;;3.80;2.20;;;9.40;59.20;;;;;;927638;150;27343;-75
2023/05/18 01:06:25;;;;;;;4.83;2.10;;;9.40;59.30;;;;;;930675;150;27419;-75
2023/05/18 01:08:52;;;;;;;5.03;2.00;;;9.40;59.40;;;;;;930570;151;27499;-76
2023/05/18 01:11:24;;;;;;;3.60;2.17;;;9.30;59.70;;;;;;930116;151;27957;-75
2023/05/18 01:13:54;;;;;;;4.70;1.87;;;9.30;59.60;;;;;;929537;151;27861;-76
2023/05/18 01:16:22;;;;;;;4.37;2.10;;;9.20;59.70;;;;;;929879;151;27294;-76
2023/05/18 01:18:47;;;;;;;5.20;1.97;;;9.20;59.60;;;;;;928799;151;27400;-76
2023/05/18 01:21:35;;;;;;;4.23;2.20;;;9.10;59.80;;;;;;930064;151;28288;-75
2023/05/18 01:24:07;;;;;;;3.07;1.63;;;9.10;60.00;;;;;;930395;151;27392;-76
2023/05/18 01:26:36;;;;;;;3.63;1.93;;;9.00;59.70;;;;;;930249;151;27423;-76
2023/05/18 01:29:00;;;;;;;4.60;1.93;;;9.00;60.50;;;;;;929611;151;27294;-75
2023/05/18 01:31:27;;;;;;;2.17;1.90;;;8.90;60.00;;;;;;930435;151;27404;-75
2023/05/18 01:33:53;;;;;;;4.70;2.07;;;8.90;60.10;;;;;;930299;151;27337;-76
2023/05/18 01:36:20;;;;;;;3.90;2.03;;;8.90;60.30;;;;;;930024;151;27315;-75
2023/05/18 01:38:47;;;;;;;4.57;2.50;;;8.80;60.30;;;;;;930198;151;27418;-75
2023/05/18 01:41:23;;;;;;;2.30;2.10;;;8.80;59.80;;;;;;930414;150;27407;-76
2023/05/18 01:43:55;;;;;;;3.80;2.13;;;8.80;60.70;;;;;;930306;151;27989;-75
2023/05/18 01:46:39;;;;;;;4.10;2.30;;;8.70;60.70;;;;;;929104;151;27446;-75
2023/05/18 01:49:36;;;;;;;3.90;2.17;;;8.70;60.70;;;;;;929598;151;27437;-75
2023/05/18 01:52:03;;;;;;;2.83;2.03;;;8.70;60.70;;;;;;930340;151;27753;-75
2023/05/18 01:54:30;;;;;;;4.47;2.40;;;8.70;60.80;;;;;;929529;151;27385;-74
2023/05/18 01:56:56;;;;;;;4.17;2.20;;;8.60;61.00;;;;;;930151;151;27425;-74
2023/05/18 01:59:23;;;;;;;4.77;2.30;;;8.60;61.20;;;;;;930241;151;27482;-74
2023/05/18 02:01:49;;;;;;;3.17;2.10;;;8.60;61.30;;;;;;930759;151;27406;-74
2023/05/18 02:04:16;;;;;;;7.30;2.40;;;8.50;61.10;;;;;;930205;151;27370;-74
2023/05/18 02:06:42;;;;;;;5.33;2.40;;;8.50;61.10;;;;;;930443;151;27374;-74
2023/05/18 02:09:09;;;;;;;3.37;1.70;;;8.50;61.40;;;;;;930285;151;28214;-75
2023/05/18 02:11:36;;;;;;;4.60;2.03;;;8.50;61.50;;;;;;930400;151;27324;-75
2023/05/18 02:14:02;;;;;;;2.77;1.83;;;8.50;61.70;;;;;;929906;151;27345;-75
2023/05/18 02:16:29;;;;;;;4.50;2.00;;;8.50;61.80;;;;;;930613;151;27473;-75
2023/05/18 02:18:55;;;;;;;5.50;2.13;;;8.50;62.00;;;;;;930267;151;27468;-75
2023/05/18 02:21:22;;;;;;;9.83;3.00;;;8.40;61.90;;;;;;918294;152;28097;-75
2023/05/18 02:23:49;;;;;;;3.67;2.33;;;8.40;61.30;;;;;;935146;149;27330;-75
2023/05/18 02:26:15;;;;;;;2.30;2.00;;;8.40;62.20;;;;;;935158;149;27346;-75
2023/05/18 02:28:42;;;;;;;5.27;1.93;;;8.30;62.20;;;;;;934184;150;27362;-75
2023/05/18 02:31:08;;;;;;;4.27;2.03;;;8.30;62.00;;;;;;934620;149;27326;-75
2023/05/18 02:33:38;;;;;;;3.27;1.80;;;8.30;62.30;;;;;;917926;152;27373;-75
2023/05/18 02:36:02;;;;;;;5.77;1.87;;;8.30;62.60;;;;;;911959;152;27307;-75
2023/05/18 02:38:28;;;;;;;5.00;2.53;;;8.20;62.70;;;;;;918617;152;27956;-75
2023/05/18 02:40:55;;;;;;;4.70;2.23;;;8.20;62.70;;;;;;918681;152;27775;-74
2023/05/18 02:43:21;;;;;;;2.73;2.13;;;8.20;62.80;;;;;;933701;149;27352;-75
2023/05/18 02:45:48;;;;;;;2.03;1.83;;;8.10;62.90;;;;;;934408;150;27321;-75
2023/05/18 02:48:14;;;;;;;4.60;2.40;;;8.10;63.10;;;;;;918529;152;27344;-76
2023/05/18 02:50:42;;;;;;;3.20;2.13;;;8.10;63.10;;;;;;933359;149;27895;-76
2023/05/18 02:53:08;;;;;;;6.73;2.50;;;8.10;63.20;;;;;;932905;149;27323;-76
2023/05/18 02:55:34;;;;;;;3.50;1.97;;;8.00;63.20;;;;;;933837;149;27296;-76
2023/05/18 02:58:01;;;;;;;3.73;2.20;;;8.00;63.40;;;;;;940816;148;27390;-75
2023/05/18 03:00:29;;;;;;;3.87;2.03;;;8.00;63.40;;;;;;950624;148;27469;-74
2023/05/18 03:02:56;;;;;;;3.90;2.00;;;8.00;63.50;;;;;;950182;148;27340;-75
2023/05/18 03:05:22;;;;;;;4.93;2.20;;;7.90;64.40;;;;;;950829;148;27272;-75
2023/05/18 03:07:49;;;;;;;3.93;2.33;;;7.90;63.40;;;;;;930820;151;27446;-75
2023/05/18 03:10:14;;;;;;;2.53;2.00;;;7.90;63.70;;;;;;925736;151;27423;-74
2023/05/18 03:12:40;;;;;;;4.67;2.33;;;7.90;63.60;;;;;;935664;151;27366;-75
2023/05/18 03:15:07;;;;;;;2.93;2.10;;;7.90;63.70;;;;;;946743;149;27352;-74
2023/05/18 03:17:33;;;;;;;4.07;2.20;;;7.90;63.60;;;;;;935847;151;27395;-75
2023/05/18 03:20:03;;;;;;;5.43;1.90;;;7.90;63.60;;;;;;926638;151;27363;-75
2023/05/18 03:22:27;;;;;;;6.67;2.20;;;7.90;63.60;;;;;;929672;151;27452;-74
2023/05/18 03:24:54;;;;;;;3.90;1.90;;;7.90;63.60;;;;;;947777;148;27445;-75
2023/05/18 03:27:24;;;;;;;5.13;2.20;;;7.90;63.80;;;;;;931325;151;27353;-75
2023/05/18 03:29:46;;;;;;;6.23;2.30;;;8.00;63.70;;;;;;929689;151;27353;-75
2023/05/18 03:32:13;;;;;;;3.23;1.97;;;8.00;63.80;;;;;;926556;151;27424;-75
2023/05/18 03:34:40;;;;;;;3.37;1.90;;;8.00;63.80;;;;;;947230;149;27367;-75
2023/05/18 03:37:06;;;;;;;3.37;1.93;;;8.00;63.90;;;;;;947572;148;27324;-75
2023/05/18 03:39:33;;;;;;;2.80;2.20;;;8.00;63.90;;;;;;947560;149;27807;-75
2023/05/18 03:42:00;;;;;;;3.07;2.10;;;8.00;63.90;;;;;;947544;148;27355;-75
2023/05/18 03:44:26;;;;;;;5.63;2.20;;;8.10;64.00;;;;;;947193;148;27420;-75
2023/05/18 03:46:52;;;;;;;4.13;1.80;;;8.10;64.00;;;;;;947401;149;27430;-75
2023/05/18 03:49:19;;;;;;;2.33;1.87;;;8.10;64.00;;;;;;946605;148;27296;-75
2023/05/18 03:51:46;;;;;;;6.70;2.30;;;8.10;63.90;;;;;;947453;149;27385;-75
2023/05/18 03:54:12;;;;;;;5.60;2.70;;;8.10;64.10;;;;;;947387;148;27789;-75
2023/05/18 03:56:39;;;;;;;4.73;2.20;;;8.10;64.30;;;;;;947067;148;27453;-75
2023/05/18 03:59:05;;;;;;;4.30;2.50;;;8.10;64.10;;;;;;940577;149;27362;-74
2023/05/18 04:01:32;;;;;;;5.50;1.83;;;8.10;64.20;;;;;;934854;149;27271;-75
2023/05/18 04:03:59;;;;;;;2.80;2.13;;;8.10;64.30;;;;;;911560;153;27383;-75
2023/05/18 04:06:25;;;;;;;4.07;2.20;;;8.10;64.20;;;;;;934218;149;27364;-75
2023/05/18 04:08:52;;;;;;;5.07;2.40;;;8.10;64.00;;;;;;934174;149;27403;-75
2023/05/18 04:11:18;;;;;;;3.77;2.03;;;8.20;64.20;;;;;;935462;149;27306;-75
2023/05/18 04:13:46;;;;;;;5.80;2.93;;;8.20;64.10;;;;;;918524;152;27352;-75
2023/05/18 04:16:12;;;;;;;4.13;1.87;;;8.20;64.40;;;;;;919145;152;27407;-75
2023/05/18 04:18:41;;;;;;;4.80;2.43;;;8.20;64.30;;;;;;914136;152;27501;-75
2023/05/18 04:21:08;;;;;;;3.93;2.20;;;8.30;64.20;;;;;;917984;152;27451;-75
2023/05/18 04:23:37;;;;;;;3.47;2.07;;;8.30;64.30;;;;;;912146;153;27473;-75
2023/05/18 04:26:01;;;;;;;5.30;2.50;;;8.30;64.40;;;;;;934085;150;27467;-75
2023/05/18 04:28:27;;;;;;;3.93;2.20;;;8.30;64.40;;;;;;933206;149;28056;-75
2023/05/18 04:30:54;;;;;;;2.23;2.00;;;8.40;64.40;;;;;;934512;149;27340;-75
2023/05/18 04:33:20;;;;;;;5.00;2.27;;;8.40;64.60;;;;;;934228;149;27305;-75
2023/05/18 04:35:47;;;;;;;2.93;2.10;;;8.50;64.60;;;;;;933408;149;27808;-74
2023/05/18 04:38:15;;;;;;;2.97;1.90;;;8.50;64.50;;;;;;918006;152;27476;-75
2023/05/18 04:40:41;;;;;;;4.57;2.23;;;8.60;64.40;;;;;;912014;153;27361;-75
2023/05/18 04:43:07;;;;;;;5.47;2.63;;;8.60;64.50;;;;;;934702;149;27318;-75
2023/05/18 04:45:34;;;;;;;2.50;1.87;;;8.70;64.60;;;;;;912671;153;27304;-74
2023/05/18 04:48:00;;;;;;;3.07;2.03;;;8.80;64.60;;;;;;934895;150;27848;-74
2023/05/18 04:50:26;;;;;;;4.03;2.30;;;8.80;64.10;;;;;;935187;149;27441;-75
2023/05/18 04:52:56;;;;;;;4.33;2.33;;;8.90;64.70;;;;;;935023;149;27262;-75
2023/05/18 04:55:26;;;;;;;3.03;1.83;;;9.10;64.90;;;;;;918069;152;27335;-75
2023/05/18 04:57:49;;;;;;;2.97;1.90;;;9.20;65.20;;;;;;934114;149;27482;-75
2023/05/18 05:00:15;;;;;;;2.70;2.00;;;9.50;65.60;;;;;;911370;152;27402;-75
2023/05/18 05:02:42;;;;;;;3.30;2.03;;;9.80;66.10;;;;;;912337;152;27371;-75
2023/05/18 05:05:08;;;;;;;5.10;2.97;;;10.20;66.70;;;;;;913318;152;27375;-75
2023/05/18 05:07:35;;;;;;;4.63;2.10;;;10.70;67.20;;;;;;918056;152;27388;-75
2023/05/18 05:10:02;;;;;;;5.57;1.73;;;11.30;67.30;;;;;;912152;153;27500;-75
2023/05/18 05:12:28;;;;;;;5.50;2.33;;;11.90;67.20;;;;;;926700;152;27786;-75
2023/05/18 05:14:55;;;;;;;3.50;1.70;;;12.50;67.00;;;;;;927541;152;27354;-75
2023/05/18 05:17:21;;;;;;;4.60;1.87;;;13.20;66.40;;;;;;911478;153;27485;-75
2023/05/18 05:19:48;;;;;;;4.58;2.12;;;13.90;65.50;;;;;;912052;153;27454;-75
2023/05/18 05:22:16;;;;;;;2.83;2.00;;;14.50;64.40;;;;;;927588;152;27825;-75
2023/05/18 05:24:41;;;;;;;5.17;1.57;;;15.20;63.40;;;;;;927315;151;27438;-75
2023/05/18 05:27:08;;;;;;;3.22;1.50;;;15.80;61.90;;;;;;926981;151;27423;-75
2023/05/18 05:29:34;;;;;;;3.37;1.60;;;16.30;61.40;;;;;;912380;153;27579;-75
2023/05/18 05:32:01;;;;;;;2.75;1.90;;;16.90;60.40;;;;;;934773;149;27465;-75
2023/05/18 05:34:28;;;;;;;4.62;1.98;;;17.40;59.60;;;;;;918973;152;27432;-75
2023/05/18 05:36:54;;;;;;;2.72;2.02;;;18.00;59.10;;;;;;935290;149;27252;-75
2023/05/18 05:39:21;;;;;;;3.08;1.77;;;18.50;58.40;;;;;;934204;150;27360;-75
2023/05/18 05:41:47;;;;;;;2.42;1.67;;;19.00;57.90;;;;;;934950;149;27364;-75
2023/05/18 05:44:14;;;;;;;1.67;1.35;;;19.50;57.30;;;;;;912190;153;27405;-75
2023/05/18 05:46:40;;;;;;;2.70;1.80;;;20.00;56.60;;;;;;934848;150;27321;-75
2023/05/18 05:49:07;;;;;;;3.33;1.60;;;20.60;56.00;;;;;;912201;153;27637;-75
2023/05/18 05:51:34;;;;;;;2.98;1.90;;;21.10;55.30;;;;;;927236;152;27422;-75
2023/05/18 05:54:00;;;;;;;3.10;1.45;;;21.50;54.60;;;;;;926945;152;27365;-75
2023/05/18 05:56:27;;;;;;;3.17;1.70;;;22.00;54.00;;;;;;912247;153;27377;-75
2023/05/18 05:58:53;;;;;;;2.83;1.70;;;22.50;53.30;;;;;;935107;149;27323;-75
2023/05/18 06:01:20;;;;;;;2.42;1.57;;;22.90;52.70;;;;;;935034;149;28991;-75
2023/05/18 06:03:47;;;;;;;3.77;1.82;;;23.30;52.00;;;;;;918357;152;27406;-75
2023/05/18 06:06:13;;;;;;;3.10;1.47;;;23.70;51.40;;;;;;912191;153;27340;-75
2023/05/18 06:08:40;;;;;;;3.02;1.98;;;24.10;51.00;;;;;;912205;153;27440;-75
2023/05/18 06:11:06;;;;;;;4.80;1.70;;;24.60;50.70;;;;;;916427;153;27386;-75
2023/05/18 06:13:33;;;;;;;1.67;1.37;;;25.00;50.30;;;;;;934220;149;27371;-75
2023/05/18 06:16:00;;;;;;;2.10;1.27;;;25.50;49.90;;;;;;911554;152;27347;-77
2023/05/18 06:18:26;;;;;;;1.60;1.00;;;26.10;49.30;;;;;;934347;150;27423;-76
2023/05/18 06:20:53;;;;;;;2.17;1.42;;;26.60;48.60;;;;;;934696;149;27285;-77
2023/05/18 06:23:22;;;;;;;2.55;1.40;;;27.10;47.90;;;;;;933880;149;27457;-77
2023/05/18 06:25:49;;;;;;;4.37;1.62;;;27.50;47.10;;;;;;933315;149;27385;-77
2023/05/18 06:28:15;;;;;;;4.10;1.60;;;27.90;46.50;;;;;;933836;149;27899;-77
2023/05/18 06:30:42;;;;;;;2.47;1.60;;;28.30;46.00;;;;;;934352;149;27316;-77
2023/05/18 06:33:09;;;;;;;3.27;1.65;;;28.60;45.40;;;;;;933610;149;27385;-76
2023/05/18 06:35:35;;;;;;;3.45;1.40;;;29.00;44.90;;;;;;934782;149;26321;-77
2023/05/18 06:38:02;;;;;;;3.22;2.10;;;29.40;44.40;;;;;;934276;149;27286;-77
2023/05/18 06:40:28;;;;;;;3.40;1.60;;;29.60;43.70;;;;;;933803;149;27341;-77
2023/05/18 06:42:55;;;;;;;2.67;1.62;;;29.90;43.10;;;;;;933798;149;27377;-77
2023/05/18 06:45:21;;;;;;;2.70;1.80;;;30.20;42.80;;;;;;934064;149;27365;-77
2023/05/18 06:47:48;;;;;;;2.17;1.32;;;30.50;42.30;;;;;;933634;149;27365;-77
2023/05/18 06:50:15;;;;;;;1.70;1.10;;;30.80;42.70;;;;;;934208;149;27344;-77
2023/05/18 06:52:41;;;;;;;4.55;1.47;;;31.10;41.60;;;;;;933807;149;27341;-77
2023/05/18 06:55:08;;;;;;;2.37;1.20;;;31.40;41.20;;;;;;933679;149;27446;-77
2023/05/18 06:57:35;;;;;;;2.22;1.35;;;31.70;40.70;;;;;;933907;149;27385;-77
2023/05/18 07:00:01;;;;;;;2.75;1.65;;;32.10;40.20;;;;;;933990;149;27341;-77
2023/05/18 07:02:28;;;;;;;2.47;1.35;;;32.30;39.60;;;;;;933301;149;27379;-77
2023/05/18 07:04:54;;;;;;;2.85;1.70;;;32.60;39.20;;;;;;934229;149;26284;-77
2023/05/18 07:07:21;;;;;;;1.90;1.40;;;32.80;38.90;;;;;;933547;149;26339;-77
2023/05/18 07:09:48;;;;;;;2.22;1.37;;;33.10;38.90;;;;;;934624;149;26375;-77
2023/05/18 07:12:14;;;;;;;2.02;1.25;;;33.20;38.00;;;;;;933930;149;26280;-77
2023/05/18 07:14:41;;;;;;;2.83;1.50;;;33.50;37.80;;;;;;934145;149;27414;-77
2023/05/18 07:17:07;;;;;;;3.80;1.87;;;33.60;37.30;;;;;;933438;149;26372;-77
2023/05/18 07:19:34;;;;;;;3.55;1.42;;;33.80;37.10;;;;;;932827;149;26247;-77
2023/05/18 07:22:00;;;;;;;3.80;1.40;;;34.10;36.80;;;;;;934095;149;26305;-77
2023/05/18 07:24:27;;;;;;;4.10;1.35;;;34.30;36.80;;;;;;933322;149;26199;-77
2023/05/18 07:26:54;;;;;;;4.15;1.45;;;34.60;36.60;;;;;;933875;149;26375;-78
2023/05/18 07:29:20;;;;;;;2.05;1.32;;;35.00;36.40;;;;;;933591;149;26341;-78
2023/05/18 07:31:47;;;;;;;2.60;1.50;;;35.40;36.20;;;;;;934102;149;26200;-78
2023/05/18 07:34:13;;;;;;;1.98;1.10;;;35.80;35.70;;;;;;933349;149;26216;-78
2023/05/18 07:36:40;;;;;;;2.85;1.50;;;36.20;35.40;;;;;;933634;149;26234;-78
2023/05/18 07:39:07;;;;;;;2.05;1.07;;;36.60;34.80;;;;;;933736;149;26276;-78
2023/05/18 07:41:33;;;;;;;1.77;1.50;;;37.00;34.40;;;;;;933629;149;27342;-78
2023/05/18 07:44:00;;;;;;;4.53;1.67;;;37.30;33.70;;;;;;933646;149;26340;-78
2023/05/18 07:46:26;;;;;;;5.17;1.57;;;37.60;33.20;;;;;;933251;149;26364;-78
2023/05/18 07:48:53;;;;;;;3.85;1.45;;;37.80;32.70;;;;;;933235;149;26270;-78
2023/05/18 07:51:19;;;;;;;2.37;1.32;;;38.10;32.50;;;;;;933393;149;26201;-78
2023/05/18 07:53:46;;;;;;;1.55;1.07;;;38.30;32.10;;;;;;933766;149;26232;-78
2023/05/18 07:56:13;;;;;;;3.17;1.57;;;38.50;32.00;;;;;;933645;149;26224;-78
2023/05/18 07:58:39;;;;;;;1.77;1.35;;;38.80;31.70;;;;;;933408;149;26369;-78
2023/05/18 08:01:06;;;;;;;2.22;1.30;;;39.10;31.30;;;;;;939419;148;26411;-78
2023/05/18 08:03:32;;;;;;;1.75;1.37;;;39.40;31.00;;;;;;952925;148;26250;-78
2023/05/18 08:05:59;;;;;;;2.47;1.20;;;39.60;30.50;;;;;;953959;148;26233;-78
2023/05/18 08:08:26;;;;;;;2.60;1.62;;;39.80;30.00;;;;;;953687;147;26359;-78
2023/05/18 08:10:52;;;;;;;2.45;1.45;;;40.10;29.90;;;;;;953411;147;26302;-79
2023/05/18 08:13:19;;;;;;;3.12;1.75;;;40.20;29.60;;;;;;953376;147;26743;-78
2023/05/18 08:15:45;;;;;;;6.53;1.52;;;40.30;29.40;;;;;;954071;147;26230;-79
2023/05/18 08:18:12;;;;;;;2.00;1.22;;;40.50;28.80;;;;;;953452;147;26376;-79
2023/05/18 08:20:39;;;;;;;1.47;1.20;;;40.70;29.20;;;;;;953434;147;26296;-79
2023/05/18 08:23:05;;;;;;;1.70;1.30;;;40.90;28.90;;;;;;952582;147;26234;-79
2023/05/18 08:25:32;;;;;;;4.72;1.60;;;41.10;28.80;;;;;;953206;147;26349;-79
2023/05/18 08:27:58;;;;;;;3.62;1.50;;;41.30;28.40;;;;;;952688;147;26312;-79
2023/05/18 08:30:25;;;;;;;2.75;1.75;;;41.40;28.00;;;;;;952961;147;26278;-79
2023/05/18 08:32:51;;;;;;;1.95;1.30;;;41.60;27.90;;;;;;953726;147;26306;-79
2023/05/18 08:35:18;;;;;;;4.20;1.27;;;41.70;27.60;;;;;;953749;147;26203;-79
2023/05/18 08:37:45;;;;;;;2.90;1.50;;;41.80;27.30;;;;;;953526;148;26245;-79
2023/05/18 08:40:11;;;;;;;1.98;1.47;;;41.90;27.20;;;;;;953412;147;26645;-79
2023/05/18 08:42:50;;;;;;;1.62;1.30;;;42.00;27.10;;;;;;952698;147;26784;-79
2023/05/18 08:45:32;;;;;;;2.58;1.65;;;42.20;26.90;;;;;;951856;147;26206;-79
2023/05/18 08:47:58;;;;;;;2.75;1.20;;;42.20;26.70;;;;;;952440;147;26324;-79
2023/05/18 08:50:25;;;;;;;2.72;1.57;;;42.20;26.20;;;;;;953041;147;26226;-79
2023/05/18 08:52:51;;;;;;;3.20;1.30;;;41.90;25.70;;;;;;953155;147;26266;-79
2023/05/18 08:55:18;;;;;;;3.58;1.60;;;41.50;25.60;;;;;;951590;147;26366;-79
2023/05/18 08:57:45;;;;;;;3.00;1.50;;;41.10;25.80;;;;;;953760;147;26183;-79
2023/05/18 09:00:11;;;;;;;3.25;1.40;;;40.60;25.70;;;;;;953297;147;26344;-79
2023/05/18 09:02:38;;;;;;;2.90;1.50;;;40.10;25.50;;;;;;948220;147;26302;-79
2023/05/18 09:05:05;;;;;;;4.92;1.50;;;39.50;25.30;;;;;;933650;149;26383;-79
2023/05/18 09:07:31;;;;;;;3.85;1.60;;;38.90;25.30;;;;;;933704;149;26298;-78
2023/05/18 09:09:58;;;;;;;5.53;1.90;;;38.30;25.60;;;;;;933902;149;26307;-76
2023/05/18 09:12:24;;;;;;;3.35;1.52;;;37.60;25.60;;;;;;933823;149;26328;-76
2023/05/18 09:14:51;;;;;;;4.12;1.32;;;37.00;25.80;;;;;;933404;149;27356;-76
2023/05/18 09:17:17;;;;;;;5.08;1.85;;;36.40;25.60;;;;;;934174;148;27318;-76
2023/05/18 09:19:44;;;;;;;3.83;2.20;;;35.90;25.60;;;;;;933899;149;26819;-76
2023/05/18 09:22:11;;;;;;;2.77;1.67;;;35.30;25.70;;;;;;933636;149;26239;-76
2023/05/18 09:24:37;;;;;;;2.58;1.47;;;34.80;25.80;;;;;;933498;149;27359;-76
2023/05/18 09:27:04;;;;;;;3.35;1.85;;;34.30;25.90;;;;;;933543;150;27321;-76
2023/05/18 09:29:30;;;;;;;2.22;1.42;;;33.80;26.00;;;;;;934062;149;27676;-76
2023/05/18 09:31:57;;;;;;;2.40;1.32;;;33.40;26.30;;;;;;921721;152;27453;-75
2023/05/18 09:34:23;;;;;;;2.52;1.40;;;33.00;26.40;;;;;;911348;153;27380;-75
2023/05/18 09:36:53;;;;;;;5.45;1.92;;;32.70;26.50;;;;;;911637;153;27496;-75
2023/05/18 09:39:17;;;;;;;4.65;1.55;;;32.40;26.70;;;;;;933057;150;27346;-75
2023/05/18 09:41:43;;;;;;;3.52;1.42;;;32.30;27.10;;;;;;912038;152;27427;-75
2023/05/18 09:44:11;;;;;;;4.92;1.90;;;32.20;27.10;;;;;;917968;152;26259;-75
2023/05/18 09:46:36;;;;;;;3.60;1.67;;;32.20;27.20;;;;;;912144;153;27456;-75
2023/05/18 09:49:03;;;;;;;3.35;1.85;;;32.20;27.30;;;;;;935705;149;26238;-74
2023/05/18 09:51:30;;;;;;;4.55;1.80;;;32.30;27.30;;;;;;934628;150;27480;-75
2023/05/18 09:53:56;;;;;;;6.85;1.87;;;32.40;27.20;;;;;;932926;151;26249;-75
2023/05/18 09:56:23;;;;;;;1.25;1.10;;;32.40;27.20;;;;;;933325;151;27460;-75
2023/05/18 09:58:49;;;;;;;5.65;1.70;;;32.30;27.00;;;;;;933050;151;27357;-75
2023/05/18 10:01:16;;;;;;;6.55;1.57;;;32.20;26.80;;;;;;933441;150;27447;-74
2023/05/18 10:03:44;;;;;;;2.22;1.55;;;31.90;26.70;;;;;;933596;151;27373;-75
2023/05/18 10:06:11;;;;;;;2.27;1.35;;;31.60;26.70;;;;;;931647;151;27433;-75
2023/05/18 10:08:36;;;;;;;2.70;1.62;;;31.40;26.80;;;;;;930666;153;27393;-74
2023/05/18 10:11:02;;;;;;;3.22;1.98;;;31.10;27.00;;;;;;930570;151;27455;-75
2023/05/18 10:13:30;;;;;;;4.25;2.02;;;30.80;26.90;;;;;;931301;151;27396;-74
2023/05/18 10:15:55;;;;;;;5.33;1.80;;;30.50;26.80;;;;;;931750;151;27406;-75
2023/05/18 10:18:22;;;;;;;2.98;1.72;;;30.20;26.80;;;;;;931405;151;27487;-75
2023/05/18 10:20:49;;;;;;;3.72;1.82;;;29.80;26.90;;;;;;930838;153;27322;-75
2023/05/18 10:23:15;;;;;;;3.25;2.00;;;29.50;26.90;;;;;;931648;151;27791;-75
2023/05/18 10:25:42;;;;;;;2.40;1.35;;;29.00;27.00;;;;;;931267;152;27354;-75
2023/05/18 10:28:08;;;;;;;2.33;1.65;;;28.50;27.10;;;;;;930979;151;27563;-75
2023/05/18 10:30:35;;;;;;;2.83;1.80;;;28.10;27.60;;;;;;930028;152;27375;-74
2023/05/18 10:33:02;;;;;;;2.25;1.55;;;27.70;27.80;;;;;;931284;152;27314;-75
2023/05/18 10:35:28;;;;;;;2.37;1.67;;;27.40;28.00;;;;;;930638;152;27362;-74
2023/05/18 10:37:56;;;;;;;4.22;1.60;;;27.10;28.20;;;;;;931088;152;27458;-74
2023/05/18 10:40:21;;;;;;;3.37;2.00;;;26.90;28.40;;;;;;916506;154;27485;-75
2023/05/18 10:42:48;;;;;;;3.27;1.52;;;26.70;28.30;;;;;;913759;152;27341;-74
2023/05/18 10:45:15;;;;;;;2.40;1.50;;;26.50;28.50;;;;;;921809;153;27446;-75
2023/05/18 10:47:41;;;;;;;2.37;1.47;;;26.40;28.70;;;;;;938760;152;27342;-74
2023/05/18 10:50:08;;;;;;;2.33;1.65;;;26.10;28.70;;;;;;938646;151;27401;-74
2023/05/18 10:52:34;;;;;;;2.58;1.65;;;26.00;28.70;;;;;;937598;151;27612;-74
2023/05/18 10:55:01;;;;;;;2.37;1.60;;;25.70;28.50;;;;;;938872;152;27431;-74
2023/05/18 10:57:27;;;;;;;2.37;1.57;;;25.40;28.70;;;;;;919579;155;27343;-74
2023/05/18 10:59:54;;;;;;;3.98;1.50;;;25.10;28.90;;;;;;937829;151;27455;-74
2023/05/18 11:02:21;;;;;;;2.33;1.65;;;24.80;29.10;;;;;;934234;151;27433;-75
2023/05/18 11:04:47;;;;;;;4.70;1.62;;;24.70;29.40;;;;;;916476;150;27326;-74
2023/05/18 11:07:14;;;;;;;3.00;1.30;;;24.50;29.40;;;;;;930282;150;27470;-74
2023/05/18 11:09:41;;;;;;;3.47;2.05;;;24.40;29.60;;;;;;934223;150;27355;-74
2023/05/18 11:12:13;;;;;;;5.00;1.82;;;24.30;29.70;;;;;;931716;151;27511;-74
2023/05/18 11:14:49;;;;;;;1.80;1.15;;;24.20;29.80;;;;;;931950;151;27440;-74
2023/05/18 11:17:21;;;;;;;3.10;1.60;;;24.10;29.90;;;;;;953217;147;27339;-74
2023/05/18 11:22:44;;;;;;;2.77;1.45;;;23.80;30.10;;;;;;932745;151;27405;-74
2023/05/18 11:25:35;;;;;;;3.72;1.65;;;23.70;30.30;;;;;;934802;150;27409;-74
2023/05/18 11:28:03;;;;;;;4.35;1.60;;;23.70;30.50;;;;;;950413;148;27328;-75
2023/05/18 11:30:39;;;;;;;4.35;1.70;;;23.60;30.50;;;;;;951331;148;27332;-74
2023/05/18 11:33:09;;;;;;;2.17;1.57;;;23.60;30.60;;;;;;950000;148;27499;-74
2023/05/18 11:36:13;;;;;;;3.95;1.60;;;23.40;30.60;;;;;;951043;148;27456;-74
2023/05/18 11:38:53;;;;;;;1.45;1.27;;;23.40;30.80;;;;;;951039;147;27413;-74
2023/05/18 11:41:37;;;;;;;3.25;1.70;;;23.40;30.90;;;;;;951026;148;27324;-74
2023/05/18 11:44:08;;;;;;;3.92;1.45;;;23.40;31.00;;;;;;951474;148;27466;-74
2023/05/18 11:46:34;;;;;;;3.00;1.55;;;23.50;31.30;;;;;;951874;148;27443;-75
2023/05/18 11:49:03;;;;;;;2.60;1.30;;;23.60;31.50;;;;;;951651;147;27319;-74
2023/05/18 11:51:33;;;;;;;3.37;1.50;;;23.70;31.60;;;;;;952229;148;27486;-74
2023/05/18 11:54:00;;;;;;;2.98;2.02;;;23.70;31.60;;;;;;951838;148;27375;-75
2023/05/18 11:56:26;;;;;;;2.58;1.60;;;23.80;31.50;;;;;;950761;148;27797;-74
2023/05/18 11:59:14;;;;;;;2.47;1.50;;;23.80;31.60;;;;;;951963;147;27334;-75
2023/05/18 12:01:40;;;;;;;3.05;1.40;;;23.80;31.70;;;;;;952368;148;27805;-75
2023/05/18 12:04:07;;;;;;;2.83;1.80;;;23.90;31.50;;;;;;951639;147;27380;-74
2023/05/18 12:06:33;;;;;;;2.45;1.37;;;23.90;31.70;;;;;;948938;148;27881;-75
2023/05/18 12:09:01;;;;;;;3.05;1.67;;;24.00;31.60;;;;;;946817;148;27376;-75
2023/05/18 12:11:27;;;;;;;2.52;1.60;;;24.10;31.60;;;;;;947041;148;27398;-75
2023/05/18 12:13:53;;;;;;;2.95;1.55;;;24.10;31.50;;;;;;947402;149;27367;-74
2023/05/18 12:16:20;;;;;;;3.45;1.60;;;24.10;31.50;;;;;;946875;149;27392;-75
2023/05/18 12:18:49;;;;;;;2.37;1.57;;;24.00;31.60;;;;;;946007;149;27649;-74
2023/05/18 12:21:23;;;;;;;2.65;1.80;;;24.00;31.50;;;;;;947354;148;27420;-74
2023/05/18 12:23:48;;;;;;;2.15;1.50;;;23.90;31.60;;;;;;946297;149;27383;-74
2023/05/18 12:26:16;;;;;;;3.30;1.62;;;23.80;31.70;;;;;;946469;148;27352;-74
2023/05/18 12:28:42;;;;;;;2.35;1.22;;;23.70;31.60;;;;;;947016;148;27333;-74
2023/05/18 12:31:09;;;;;;;3.85;1.60;;;23.60;31.60;;;;;;928928;151;27264;-74
2023/05/18 12:33:35;;;;;;;1.92;1.32;;;23.60;31.50;;;;;;945972;148;27352;-74
2023/05/18 12:36:01;;;;;;;2.50;1.98;;;23.50;32.20;;;;;;935315;151;27346;-74
2023/05/18 12:38:28;;;;;;;2.80;2.17;;;23.50;31.70;;;;;;930594;151;27324;-74
2023/05/18 12:40:56;;;;;;;2.65;1.52;;;23.50;31.70;;;;;;947339;148;27351;-74
2023/05/18 12:43:21;;;;;;;2.95;2.12;;;23.50;31.80;;;;;;946834;148;27387;-74
2023/05/18 12:45:48;;;;;;;2.40;1.30;;;23.50;31.90;;;;;;946475;149;27709;-75
2023/05/18 12:48:14;;;;;;;4.30;1.77;;;23.50;31.90;;;;;;947553;148;27401;-74
2023/05/18 12:50:47;;;;;;;3.62;2.10;;;23.50;31.90;;;;;;946959;148;27305;-74
2023/05/18 12:53:13;;;;;;;2.45;1.32;;;23.50;31.70;;;;;;929720;151;27369;-75